Terminal Aerodrome Forecast
Issued by NWS Grand Forks, ND

Home | Current Version | Previous Version | Text Only | Print | Product List | Glossary Off
Versions: 1 2 3 4 5 6 7 8 9 10 11 12 13 14 15 16 17 18 19

000
FTUS43 KFGF 192133 AAD
TAFFAR
TAF AMD
KFAR 192133Z 1922/2018 14020G30KT P6SM BKN025
     FM200100 14022G33KT P6SM VCTS OVC030CB
      TEMPO 2002/2004 4SM TSRA OVC015CB
     FM200400 16019G29KT P6SM VCTS OVC045CB
     FM200500 23017G26KT P6SM OVC050
     FM201100 25010KT P6SM SCT100=

USA.gov is the U.S. government's official web portal to all federal, state and local government web resources and services.